sensor_id;sensor_type;location;lat;lon;timestamp;pressure;altitude;pressure_sealevel;temperature;humidity
76260;BME280;65076;52.362;6.588;2023-09-19T00:00:22;100626.84;;;16.17;86.54
76260;BME280;65076;52.362;6.588;2023-09-19T00:02:53;100623.06;;;16.06;86.22
76260;BME280;65076;52.362;6.588;2023-09-19T00:05:22;100622.03;;;16.20;88.00
76260;BME280;65076;52.362;6.588;2023-09-19T00:07:53;100625.03;;;16.28;86.00
76260;BME280;65076;52.362;6.588;2023-09-19T00:10:27;100634.63;;;16.10;87.08
76260;BME280;65076;52.362;6.588;2023-09-19T00:13:03;100628.97;;;16.37;86.56
76260;BME280;65076;52.362;6.588;2023-09-19T00:15:37;100636.31;;;16.24;86.65
76260;BME280;65076;52.362;6.588;2023-09-19T00:18:07;100647.56;;;15.83;86.76
76260;BME280;65076;52.362;6.588;2023-09-19T00:20:38;100638.75;;;15.66;87.01
76260;BME280;65076;52.362;6.588;2023-09-19T00:23:07;100645.63;;;15.72;87.20
76260;BME280;65076;52.362;6.588;2023-09-19T00:25:39;100641.22;;;15.82;85.57
76260;BME280;65076;52.362;6.588;2023-09-19T00:30:36;100649.41;;;15.82;84.49
76260;BME280;65076;52.362;6.588;2023-09-19T00:33:12;100654.25;;;15.79;84.97
76260;BME280;65076;52.362;6.588;2023-09-19T00:35:47;100649.53;;;15.81;84.40
76260;BME280;65076;52.362;6.588;2023-09-19T00:38:16;100655.41;;;15.87;83.58
76260;BME280;65076;52.362;6.588;2023-09-19T00:40:51;100672.47;;;15.91;83.87
76260;BME280;65076;52.362;6.588;2023-09-19T00:43:20;100671.81;;;15.75;83.58
76260;BME280;65076;52.362;6.588;2023-09-19T00:45:51;100670.94;;;15.74;84.41
76260;BME280;65076;52.362;6.588;2023-09-19T00:48:22;100673.44;;;15.77;83.58
76260;BME280;65076;52.362;6.588;2023-09-19T00:50:52;100667.44;;;15.72;84.02
76260;BME280;65076;52.362;6.588;2023-09-19T00:53:23;100670.28;;;15.83;83.28
76260;BME280;65076;52.362;6.588;2023-09-19T00:55:56;100672.59;;;15.51;84.47
76260;BME280;65076;52.362;6.588;2023-09-19T00:58:25;100675.31;;;15.64;85.04
76260;BME280;65076;52.362;6.588;2023-09-19T01:00:59;100677.38;;;15.86;83.91
76260;BME280;65076;52.362;6.588;2023-09-19T01:03:32;100682.72;;;15.75;83.41
76260;BME280;65076;52.362;6.588;2023-09-19T01:06:02;100680.41;;;15.81;83.56
76260;BME280;65076;52.362;6.588;2023-09-19T01:08:32;100688.28;;;15.60;83.69
76260;BME280;65076;52.362;6.588;2023-09-19T01:11:13;100693.75;;;15.60;83.82
76260;BME280;65076;52.362;6.588;2023-09-19T01:13:56;100688.72;;;15.80;82.92
76260;BME280;65076;52.362;6.588;2023-09-19T01:16:36;100695.06;;;15.67;84.12
76260;BME280;65076;52.362;6.588;2023-09-19T01:19:50;100683.38;;;15.65;82.65
76260;BME280;65076;52.362;6.588;2023-09-19T01:22:44;100696.13;;;15.65;83.76
76260;BME280;65076;52.362;6.588;2023-09-19T01:25:48;100689.91;;;15.76;82.09
76260;BME280;65076;52.362;6.588;2023-09-19T01:28:48;100689.81;;;15.52;82.85
76260;BME280;65076;52.362;6.588;2023-09-19T01:33:58;100705.50;;;15.48;82.56
76260;BME280;65076;52.362;6.588;2023-09-19T01:36:31;100693.69;;;15.35;82.82
76260;BME280;65076;52.362;6.588;2023-09-19T01:39:06;100710.22;;;15.59;81.99
76260;BME280;65076;52.362;6.588;2023-09-19T01:41:47;100699.19;;;15.48;82.18
76260;BME280;65076;52.362;6.588;2023-09-19T01:46:55;100708.69;;;15.67;81.11
76260;BME280;65076;52.362;6.588;2023-09-19T01:49:37;100707.00;;;15.40;81.71
76260;BME280;65076;52.362;6.588;2023-09-19T01:52:13;100703.25;;;15.80;81.09
76260;BME280;65076;52.362;6.588;2023-09-19T01:54:47;100705.97;;;15.67;80.72
76260;BME280;65076;52.362;6.588;2023-09-19T01:57:28;100702.78;;;15.86;80.79
76260;BME280;65076;52.362;6.588;2023-09-19T02:00:06;100708.91;;;15.52;81.42
76260;BME280;65076;52.362;6.588;2023-09-19T02:02:43;100703.53;;;15.50;80.96
76260;BME280;65076;52.362;6.588;2023-09-19T02:05:25;100685.84;;;15.31;81.93
76260;BME280;65076;52.362;6.588;2023-09-19T02:07:54;100698.31;;;15.47;83.29
76260;BME280;65076;52.362;6.588;2023-09-19T02:12:53;100719.06;;;15.62;81.47
76260;BME280;65076;52.362;6.588;2023-09-19T02:15:22;100722.19;;;15.44;82.85
76260;BME280;65076;52.362;6.588;2023-09-19T02:17:51;100735.38;;;15.50;83.24
76260;BME280;65076;52.362;6.588;2023-09-19T02:20:24;100730.13;;;15.34;83.47
76260;BME280;65076;52.362;6.588;2023-09-19T02:22:53;100729.75;;;15.65;83.02
76260;BME280;65076;52.362;6.588;2023-09-19T02:25:22;100723.88;;;15.59;83.26
76260;BME280;65076;52.362;6.588;2023-09-19T02:27:52;100725.81;;;15.57;83.59
76260;BME280;65076;52.362;6.588;2023-09-19T02:30:23;100727.31;;;15.48;83.69
76260;BME280;65076;52.362;6.588;2023-09-19T02:32:53;100725.56;;;15.47;84.74
76260;BME280;65076;52.362;6.588;2023-09-19T02:35:24;100712.28;;;15.43;83.83
76260;BME280;65076;52.362;6.588;2023-09-19T02:37:54;100728.06;;;15.50;85.15
76260;BME280;65076;52.362;6.588;2023-09-19T02:40:23;100711.22;;;15.18;85.45
76260;BME280;65076;52.362;6.588;2023-09-19T02:42:54;100715.81;;;15.70;84.65
76260;BME280;65076;52.362;6.588;2023-09-19T02:47:52;100715.88;;;15.43;85.38
76260;BME280;65076;52.362;6.588;2023-09-19T02:50:24;100732.22;;;15.43;85.49
76260;BME280;65076;52.362;6.588;2023-09-19T02:52:53;100723.41;;;15.65;84.95
76260;BME280;65076;52.362;6.588;2023-09-19T02:55:26;100721.66;;;15.51;83.64
76260;BME280;65076;52.362;6.588;2023-09-19T02:57:55;100740.78;;;15.64;84.38
76260;BME280;65076;52.362;6.588;2023-09-19T03:00:24;100733.78;;;15.73;84.72
76260;BME280;65076;52.362;6.588;2023-09-19T03:05:24;100741.97;;;15.60;83.38
76260;BME280;65076;52.362;6.588;2023-09-19T03:07:56;100737.59;;;15.83;83.01
76260;BME280;65076;52.362;6.588;2023-09-19T03:10:29;100744.56;;;15.49;84.80
76260;BME280;65076;52.362;6.588;2023-09-19T03:13:01;100740.44;;;15.56;85.41
76260;BME280;65076;52.362;6.588;2023-09-19T03:15:30;100730.91;;;15.36;84.88
76260;BME280;65076;52.362;6.588;2023-09-19T03:17:59;100734.69;;;15.34;84.86
76260;BME280;65076;52.362;6.588;2023-09-19T03:20:32;100749.06;;;15.62;83.27
76260;BME280;65076;52.362;6.588;2023-09-19T03:23:05;100748.31;;;15.21;83.92
76260;BME280;65076;52.362;6.588;2023-09-19T03:28:02;100745.88;;;15.56;82.83
76260;BME280;65076;52.362;6.588;2023-09-19T03:30:32;100741.53;;;15.53;81.90
76260;BME280;65076;52.362;6.588;2023-09-19T03:35:33;100750.47;;;15.55;81.52
76260;BME280;65076;52.362;6.588;2023-09-19T03:38:04;100753.13;;;15.30;81.83
76260;BME280;65076;52.362;6.588;2023-09-19T03:40:33;100762.38;;;15.54;81.12
76260;BME280;65076;52.362;6.588;2023-09-19T03:45:33;100744.84;;;15.44;80.45
76260;BME280;65076;52.362;6.588;2023-09-19T03:48:08;100724.78;;;15.45;79.52
76260;BME280;65076;52.362;6.588;2023-09-19T03:50:39;100730.56;;;15.28;80.50
76260;BME280;65076;52.362;6.588;2023-09-19T03:55:41;100728.78;;;15.66;78.74
76260;BME280;65076;52.362;6.588;2023-09-19T04:00:40;100727.84;;;15.41;78.80
76260;BME280;65076;52.362;6.588;2023-09-19T04:03:09;100739.81;;;15.25;78.62
76260;BME280;65076;52.362;6.588;2023-09-19T04:08:15;100734.47;;;15.24;78.03
76260;BME280;65076;52.362;6.588;2023-09-19T04:10:45;100732.16;;;15.18;77.18
76260;BME280;65076;52.362;6.588;2023-09-19T04:13:14;100734.47;;;15.24;77.80
76260;BME280;65076;52.362;6.588;2023-09-19T04:15:43;100726.97;;;14.88;78.07
76260;BME280;65076;52.362;6.588;2023-09-19T04:18:13;100748.59;;;15.04;77.89
76260;BME280;65076;52.362;6.588;2023-09-19T04:20:48;100752.38;;;14.89;76.84
76260;BME280;65076;52.362;6.588;2023-09-19T04:25:51;100761.25;;;15.05;76.06
76260;BME280;65076;52.362;6.588;2023-09-19T04:28:20;100772.38;;;15.02;75.50
76260;BME280;65076;52.362;6.588;2023-09-19T04:38:23;100777.03;;;15.00;75.18
76260;BME280;65076;52.362;6.588;2023-09-19T04:43:24;100779.09;;;14.96;75.75
76260;BME280;65076;52.362;6.588;2023-09-19T04:45:54;100798.59;;;14.90;76.82
76260;BME280;65076;52.362;6.588;2023-09-19T04:48:24;100799.56;;;14.89;75.18
76260;BME280;65076;52.362;6.588;2023-09-19T04:50:54;100797.97;;;14.99;75.88
76260;BME280;65076;52.362;6.588;2023-09-19T04:53:23;100801.19;;;14.92;75.46
76260;BME280;65076;52.362;6.588;2023-09-19T04:56:02;100796.66;;;14.78;75.90
76260;BME280;65076;52.362;6.588;2023-09-19T05:01:03;100798.69;;;14.89;75.15
76260;BME280;65076;52.362;6.588;2023-09-19T05:03:33;100800.75;;;14.71;74.47
76260;BME280;65076;52.362;6.588;2023-09-19T05:06:02;100808.84;;;14.72;75.00
76260;BME280;65076;52.362;6.588;2023-09-19T05:08:32;100801.59;;;14.59;74.80
76260;BME280;65076;52.362;6.588;2023-09-19T05:11:01;100807.00;;;14.73;74.70
76260;BME280;65076;52.362;6.588;2023-09-19T05:13:39;100818.31;;;14.53;75.20
76260;BME280;65076;52.362;6.588;2023-09-19T05:16:08;100815.06;;;14.74;74.00
76260;BME280;65076;52.362;6.588;2023-09-19T05:21:06;100824.13;;;14.61;73.89
76260;BME280;65076;52.362;6.588;2023-09-19T05:23:35;100819.28;;;14.52;74.41
76260;BME280;65076;52.362;6.588;2023-09-19T05:26:06;100816.16;;;14.58;74.36
76260;BME280;65076;52.362;6.588;2023-09-19T05:28:38;100816.09;;;14.59;74.39
76260;BME280;65076;52.362;6.588;2023-09-19T05:31:08;100811.50;;;14.46;74.01
76260;BME280;65076;52.362;6.588;2023-09-19T05:36:05;100817.66;;;14.76;73.25
76260;BME280;65076;52.362;6.588;2023-09-19T05:41:14;100822.41;;;14.60;74.31
76260;BME280;65076;52.362;6.588;2023-09-19T05:43:46;100826.88;;;14.47;74.34
76260;BME280;65076;52.362;6.588;2023-09-19T05:46:18;100823.44;;;14.71;73.38
76260;BME280;65076;52.362;6.588;2023-09-19T05:48:47;100822.28;;;14.61;72.65
76260;BME280;65076;52.362;6.588;2023-09-19T05:51:22;100827.19;;;14.83;73.63
76260;BME280;65076;52.362;6.588;2023-09-19T05:53:54;100817.09;;;14.71;73.08
76260;BME280;65076;52.362;6.588;2023-09-19T06:01:29;100793.59;;;14.97;72.10
76260;BME280;65076;52.362;6.588;2023-09-19T06:04:00;100812.16;;;15.04;71.93
76260;BME280;65076;52.362;6.588;2023-09-19T06:08:58;100830.81;;;15.10;71.89
76260;BME280;65076;52.362;6.588;2023-09-19T06:11:27;100838.47;;;15.18;71.41
76260;BME280;65076;52.362;6.588;2023-09-19T06:13:59;100830.03;;;15.35;71.33
76260;BME280;65076;52.362;6.588;2023-09-19T06:16:32;100843.19;;;15.28;71.03
76260;BME280;65076;52.362;6.588;2023-09-19T06:19:01;100836.75;;;15.17;71.95
76260;BME280;65076;52.362;6.588;2023-09-19T06:21:37;100859.22;;;15.20;71.24
76260;BME280;65076;52.362;6.588;2023-09-19T06:24:07;100857.44;;;15.19;71.73
76260;BME280;65076;52.362;6.588;2023-09-19T06:26:36;100860.56;;;15.40;71.70
76260;BME280;65076;52.362;6.588;2023-09-19T06:29:05;100852.16;;;15.04;71.13
76260;BME280;65076;52.362;6.588;2023-09-19T06:31:38;100860.09;;;15.21;72.63
76260;BME280;65076;52.362;6.588;2023-09-19T06:34:07;100858.22;;;15.48;71.11
76260;BME280;65076;52.362;6.588;2023-09-19T06:41:33;100861.13;;;15.72;69.48
76260;BME280;65076;52.362;6.588;2023-09-19T06:46:31;100860.91;;;16.89;66.62
76260;BME280;65076;52.362;6.588;2023-09-19T06:49:04;100860.75;;;16.67;65.65
76260;BME280;65076;52.362;6.588;2023-09-19T06:51:33;100862.13;;;16.85;65.21
76260;BME280;65076;52.362;6.588;2023-09-19T06:54:03;100866.50;;;17.59;63.96
76260;BME280;65076;52.362;6.588;2023-09-19T06:56:33;100851.88;;;17.60;63.76
76260;BME280;65076;52.362;6.588;2023-09-19T06:59:02;100850.91;;;18.18;62.38
76260;BME280;65076;52.362;6.588;2023-09-19T07:01:32;100844.25;;;17.87;63.01
76260;BME280;65076;52.362;6.588;2023-09-19T07:04:04;100837.53;;;17.91;62.90
76260;BME280;65076;52.362;6.588;2023-09-19T07:09:04;100846.19;;;17.63;62.44
76260;BME280;65076;52.362;6.588;2023-09-19T07:11:35;100836.34;;;18.29;62.19
76260;BME280;65076;52.362;6.588;2023-09-19T07:14:04;100841.06;;;18.04;62.68
76260;BME280;65076;52.362;6.588;2023-09-19T07:16:33;100847.19;;;18.19;62.00
76260;BME280;65076;52.362;6.588;2023-09-19T07:21:35;100844.97;;;18.80;60.62
76260;BME280;65076;52.362;6.588;2023-09-19T07:24:04;100848.06;;;18.19;61.82
76260;BME280;65076;52.362;6.588;2023-09-19T07:26:34;100843.91;;;18.03;64.22
76260;BME280;65076;52.362;6.588;2023-09-19T07:29:03;100843.56;;;18.18;62.59
76260;BME280;65076;52.362;6.588;2023-09-19T07:31:34;100845.81;;;18.25;62.79
76260;BME280;65076;52.362;6.588;2023-09-19T07:34:03;100839.59;;;18.23;62.53
76260;BME280;65076;52.362;6.588;2023-09-19T07:36:39;100842.38;;;18.56;61.84
76260;BME280;65076;52.362;6.588;2023-09-19T07:39:09;100842.50;;;18.77;61.05
76260;BME280;65076;52.362;6.588;2023-09-19T07:41:38;100834.88;;;19.45;59.55
76260;BME280;65076;52.362;6.588;2023-09-19T07:44:07;100852.31;;;18.90;61.20
76260;BME280;65076;52.362;6.588;2023-09-19T07:49:15;100861.44;;;18.57;62.50
76260;BME280;65076;52.362;6.588;2023-09-19T07:51:47;100859.06;;;18.64;62.16
76260;BME280;65076;52.362;6.588;2023-09-19T07:54:18;100866.97;;;19.12;61.27
76260;BME280;65076;52.362;6.588;2023-09-19T07:56:47;100840.22;;;18.48;61.82
76260;BME280;65076;52.362;6.588;2023-09-19T07:59:20;100871.41;;;18.81;62.06
76260;BME280;65076;52.362;6.588;2023-09-19T08:01:56;100882.56;;;19.11;61.46
76260;BME280;65076;52.362;6.588;2023-09-19T08:04:26;100877.72;;;18.48;63.50
76260;BME280;65076;52.362;6.588;2023-09-19T08:09:32;100887.47;;;18.06;65.05
76260;BME280;65076;52.362;6.588;2023-09-19T08:12:05;100889.88;;;18.10;65.69
76260;BME280;65076;52.362;6.588;2023-09-19T08:14:36;100884.06;;;18.48;63.50
76260;BME280;65076;52.362;6.588;2023-09-19T08:17:07;100881.09;;;18.51;63.32
76260;BME280;65076;52.362;6.588;2023-09-19T08:19:37;100874.91;;;18.72;63.88
76260;BME280;65076;52.362;6.588;2023-09-19T08:22:07;100884.44;;;18.44;63.70
76260;BME280;65076;52.362;6.588;2023-09-19T08:24:41;100866.94;;;18.57;63.49
76260;BME280;65076;52.362;6.588;2023-09-19T08:27:10;100890.56;;;19.03;61.71
76260;BME280;65076;52.362;6.588;2023-09-19T08:29:39;100875.94;;;19.36;61.00
76260;BME280;65076;52.362;6.588;2023-09-19T08:37:11;100888.78;;;19.47;60.36
76260;BME280;65076;52.362;6.588;2023-09-19T08:39:43;100873.66;;;19.52;60.26
76260;BME280;65076;52.362;6.588;2023-09-19T08:42:11;100882.91;;;20.04;58.20
76260;BME280;65076;52.362;6.588;2023-09-19T08:44:42;100887.19;;;20.38;57.42
76260;BME280;65076;52.362;6.588;2023-09-19T08:47:13;100870.09;;;19.93;58.67
76260;BME280;65076;52.362;6.588;2023-09-19T08:49:52;100875.72;;;20.94;55.60
76260;BME280;65076;52.362;6.588;2023-09-19T08:52:37;100870.81;;;20.88;55.77
76260;BME280;65076;52.362;6.588;2023-09-19T08:55:14;100865.75;;;21.52;54.58
76260;BME280;65076;52.362;6.588;2023-09-19T08:57:46;100876.06;;;21.50;53.88
76260;BME280;65076;52.362;6.588;2023-09-19T09:00:19;100877.81;;;21.70;53.51
76260;BME280;65076;52.362;6.588;2023-09-19T09:05:19;100876.91;;;20.91;54.39
76260;BME280;65076;52.362;6.588;2023-09-19T09:10:20;100866.22;;;20.98;54.81
76260;BME280;65076;52.362;6.588;2023-09-19T09:17:46;100876.88;;;20.30;55.55
76260;BME280;65076;52.362;6.588;2023-09-19T09:20:18;100876.00;;;20.81;56.49
76260;BME280;65076;52.362;6.588;2023-09-19T09:22:51;100883.09;;;20.12;56.35
76260;BME280;65076;52.362;6.588;2023-09-19T09:25:46;100869.06;;;21.27;54.73
76260;BME280;65076;52.362;6.588;2023-09-19T09:28:21;100878.34;;;20.55;56.40
76260;BME280;65076;52.362;6.588;2023-09-19T09:33:17;100851.56;;;20.88;56.76
76260;BME280;65076;52.362;6.588;2023-09-19T09:35:50;100855.47;;;20.55;56.69
76260;BME280;65076;52.362;6.588;2023-09-19T09:38:23;100864.56;;;19.52;59.28
76260;BME280;65076;52.362;6.588;2023-09-19T09:41:00;100861.63;;;20.26;57.17
76260;BME280;65076;52.362;6.588;2023-09-19T09:43:33;100863.78;;;20.02;58.24
76260;BME280;65076;52.362;6.588;2023-09-19T09:46:07;100855.66;;;21.12;55.80
76260;BME280;65076;52.362;6.588;2023-09-19T09:48:57;100851.03;;;21.13;55.97
76260;BME280;65076;52.362;6.588;2023-09-19T09:51:45;100848.25;;;20.33;57.51
76260;BME280;65076;52.362;6.588;2023-09-19T09:54:27;100852.28;;;20.99;56.69
76260;BME280;65076;52.362;6.588;2023-09-19T09:59:49;100868.94;;;20.88;56.91
76260;BME280;65076;52.362;6.588;2023-09-19T10:04:47;100860.09;;;20.94;55.60
76260;BME280;65076;52.362;6.588;2023-09-19T10:07:40;100853.72;;;21.72;54.53
76260;BME280;65076;52.362;6.588;2023-09-19T10:10:15;100870.97;;;21.84;52.28
76260;BME280;65076;52.362;6.588;2023-09-19T10:13:12;100852.00;;;21.81;53.10
76260;BME280;65076;52.362;6.588;2023-09-19T10:15:48;100856.06;;;22.06;50.56
76260;BME280;65076;52.362;6.588;2023-09-19T10:18:21;100856.78;;;21.79;52.13
76260;BME280;65076;52.362;6.588;2023-09-19T10:20:53;100845.19;;;21.94;51.34
76260;BME280;65076;52.362;6.588;2023-09-19T10:23:23;100854.44;;;21.36;52.88
76260;BME280;65076;52.362;6.588;2023-09-19T10:25:56;100854.59;;;21.34;52.73
76260;BME280;65076;52.362;6.588;2023-09-19T10:28:30;100842.72;;;21.82;51.32
76260;BME280;65076;52.362;6.588;2023-09-19T10:31:05;100843.59;;;21.73;52.54
76260;BME280;65076;52.362;6.588;2023-09-19T10:33:42;100848.81;;;20.88;54.96
76260;BME280;65076;52.362;6.588;2023-09-19T10:36:14;100832.41;;;20.77;54.66
76260;BME280;65076;52.362;6.588;2023-09-19T10:38:49;100840.75;;;20.65;55.28
76260;BME280;65076;52.362;6.588;2023-09-19T10:46:24;100850.72;;;20.36;54.97
76260;BME280;65076;52.362;6.588;2023-09-19T10:48:58;100856.56;;;20.01;55.99
76260;BME280;65076;52.362;6.588;2023-09-19T10:51:42;100851.81;;;20.24;56.58
76260;BME280;65076;52.362;6.588;2023-09-19T10:54:17;100842.91;;;21.02;56.13
76260;BME280;65076;52.362;6.588;2023-09-19T10:56:54;100835.38;;;21.04;54.56
76260;BME280;65076;52.362;6.588;2023-09-19T10:59:27;100847.53;;;21.61;53.16
76260;BME280;65076;52.362;6.588;2023-09-19T11:02:16;100809.78;;;21.90;51.66
76260;BME280;65076;52.362;6.588;2023-09-19T11:04:46;100837.97;;;22.03;51.45
76260;BME280;65076;52.362;6.588;2023-09-19T11:07:22;100829.09;;;21.71;51.58
76260;BME280;65076;52.362;6.588;2023-09-19T11:09:52;100832.00;;;21.60;52.71
76260;BME280;65076;52.362;6.588;2023-09-19T11:12:50;100830.25;;;20.90;52.80
76260;BME280;65076;52.362;6.588;2023-09-19T11:18:53;100827.25;;;21.02;52.76
76260;BME280;65076;52.362;6.588;2023-09-19T11:21:41;100808.09;;;20.82;53.97
76260;BME280;65076;52.362;6.588;2023-09-19T11:24:32;100813.44;;;21.23;53.49
76260;BME280;65076;52.362;6.588;2023-09-19T11:27:15;100791.50;;;20.53;55.43
76260;BME280;65076;52.362;6.588;2023-09-19T11:29:46;100801.34;;;21.05;53.86
76260;BME280;65076;52.362;6.588;2023-09-19T11:32:15;100797.00;;;20.53;55.48
76260;BME280;65076;52.362;6.588;2023-09-19T11:34:49;100823.69;;;20.20;55.95
76260;BME280;65076;52.362;6.588;2023-09-19T11:37:59;100808.03;;;20.32;55.22
76260;BME280;65076;52.362;6.588;2023-09-19T11:40:33;100809.56;;;20.25;56.12
76260;BME280;65076;52.362;6.588;2023-09-19T11:43:28;100800.78;;;20.31;56.51
76260;BME280;65076;52.362;6.588;2023-09-19T11:46:04;100798.59;;;20.25;55.39
76260;BME280;65076;52.362;6.588;2023-09-19T11:48:32;100809.38;;;20.17;56.72
76260;BME280;65076;52.362;6.588;2023-09-19T11:51:17;100796.03;;;20.12;56.60
76260;BME280;65076;52.362;6.588;2023-09-19T11:53:56;100786.06;;;20.11;56.51
76260;BME280;65076;52.362;6.588;2023-09-19T11:56:27;100796.63;;;20.16;56.05
76260;BME280;65076;52.362;6.588;2023-09-19T11:58:57;100789.69;;;20.12;56.15
76260;BME280;65076;52.362;6.588;2023-09-19T12:01:30;100794.53;;;20.29;56.67
76260;BME280;65076;52.362;6.588;2023-09-19T12:04:01;100812.59;;;20.22;57.23
76260;BME280;65076;52.362;6.588;2023-09-19T12:06:35;100798.16;;;19.99;57.73
76260;BME280;65076;52.362;6.588;2023-09-19T12:09:12;100796.25;;;19.79;57.77
76260;BME280;65076;52.362;6.588;2023-09-19T12:11:42;100799.63;;;20.03;57.35
76260;BME280;65076;52.362;6.588;2023-09-19T12:14:21;100785.09;;;19.92;56.61
76260;BME280;65076;52.362;6.588;2023-09-19T12:16:53;100790.53;;;20.33;56.48
76260;BME280;65076;52.362;6.588;2023-09-19T12:19:23;100799.19;;;20.59;56.46
76260;BME280;65076;52.362;6.588;2023-09-19T12:22:10;100797.03;;;20.62;55.81
76260;BME280;65076;52.362;6.588;2023-09-19T12:24:40;100784.75;;;20.66;54.95
76260;BME280;65076;52.362;6.588;2023-09-19T12:27:09;100772.47;;;20.70;54.54
76260;BME280;65076;52.362;6.588;2023-09-19T12:29:43;100772.53;;;21.09;55.09
76260;BME280;65076;52.362;6.588;2023-09-19T12:32:14;100774.47;;;21.37;54.61
76260;BME280;65076;52.362;6.588;2023-09-19T12:34:50;100776.22;;;21.19;54.19
76260;BME280;65076;52.362;6.588;2023-09-19T12:37:23;100780.34;;;21.04;53.94
76260;BME280;65076;52.362;6.588;2023-09-19T12:42:26;100773.34;;;20.81;54.49
76260;BME280;65076;52.362;6.588;2023-09-19T12:44:58;100758.84;;;20.79;53.82
76260;BME280;65076;52.362;6.588;2023-09-19T12:47:29;100768.16;;;20.47;54.69
76260;BME280;65076;52.362;6.588;2023-09-19T12:50:07;100769.94;;;20.58;54.96
76260;BME280;65076;52.362;6.588;2023-09-19T12:52:43;100765.66;;;20.75;54.64
76260;BME280;65076;52.362;6.588;2023-09-19T12:55:23;100769.69;;;20.61;53.88
76260;BME280;65076;52.362;6.588;2023-09-19T12:57:58;100750.53;;;20.50;54.79
76260;BME280;65076;52.362;6.588;2023-09-19T13:00:33;100772.41;;;20.51;54.47
76260;BME280;65076;52.362;6.588;2023-09-19T13:03:11;100747.50;;;20.53;55.58
76260;BME280;65076;52.362;6.588;2023-09-19T13:05:51;100767.41;;;20.85;54.25
76260;BME280;65076;52.362;6.588;2023-09-19T13:08:25;100758.66;;;20.51;55.57
76260;BME280;65076;52.362;6.588;2023-09-19T13:11:06;100772.56;;;20.29;55.63
76260;BME280;65076;52.362;6.588;2023-09-19T13:16:05;100758.00;;;20.08;55.46
76260;BME280;65076;52.362;6.588;2023-09-19T13:18:46;100759.25;;;20.24;56.76
76260;BME280;65076;52.362;6.588;2023-09-19T13:21:17;100746.38;;;20.55;55.22
76260;BME280;65076;52.362;6.588;2023-09-19T13:24:22;100759.31;;;20.34;55.28
76260;BME280;65076;52.362;6.588;2023-09-19T13:26:56;100761.06;;;20.35;56.36
76260;BME280;65076;52.362;6.588;2023-09-19T13:29:25;100755.72;;;20.43;56.36
76260;BME280;65076;52.362;6.588;2023-09-19T13:31:54;100756.56;;;20.34;55.68
76260;BME280;65076;52.362;6.588;2023-09-19T13:34:23;100745.97;;;20.29;56.42
76260;BME280;65076;52.362;6.588;2023-09-19T13:36:54;100757.38;;;20.25;56.21
76260;BME280;65076;52.362;6.588;2023-09-19T13:42:13;100745.56;;;20.34;56.66
76260;BME280;65076;52.362;6.588;2023-09-19T13:44:42;100740.97;;;20.14;56.85
76260;BME280;65076;52.362;6.588;2023-09-19T13:47:10;100756.03;;;20.19;56.54
76260;BME280;65076;52.362;6.588;2023-09-19T13:49:40;100753.84;;;20.13;57.20
76260;BME280;65076;52.362;6.588;2023-09-19T13:52:10;100758.59;;;20.11;57.11
76260;BME280;65076;52.362;6.588;2023-09-19T13:54:38;100753.88;;;19.93;57.11
76260;BME280;65076;52.362;6.588;2023-09-19T13:57:10;100754.97;;;20.11;56.21
76260;BME280;65076;52.362;6.588;2023-09-19T13:59:39;100754.75;;;19.72;57.02
76260;BME280;65076;52.362;6.588;2023-09-19T14:02:08;100747.69;;;20.00;57.22
76260;BME280;65076;52.362;6.588;2023-09-19T14:04:39;100757.13;;;20.07;56.50
76260;BME280;65076;52.362;6.588;2023-09-19T14:07:08;100755.19;;;20.28;56.36
76260;BME280;65076;52.362;6.588;2023-09-19T14:09:40;100742.09;;;20.11;56.06
76260;BME280;65076;52.362;6.588;2023-09-19T14:12:12;100743.88;;;20.22;56.09
76260;BME280;65076;52.362;6.588;2023-09-19T14:14:42;100745.09;;;20.29;56.28
76260;BME280;65076;52.362;6.588;2023-09-19T14:17:11;100737.22;;;20.15;56.18
76260;BME280;65076;52.362;6.588;2023-09-19T14:19:41;100750.97;;;20.15;56.30
76260;BME280;65076;52.362;6.588;2023-09-19T14:22:10;100752.88;;;20.24;56.66
76260;BME280;65076;52.362;6.588;2023-09-19T14:24:39;100760.44;;;20.32;56.40
76260;BME280;65076;52.362;6.588;2023-09-19T14:27:12;100739.25;;;19.92;57.15
76260;BME280;65076;52.362;6.588;2023-09-19T14:29:41;100749.22;;;20.14;56.76
76260;BME280;65076;52.362;6.588;2023-09-19T14:32:11;100749.06;;;20.15;56.54
76260;BME280;65076;52.362;6.588;2023-09-19T14:34:39;100747.38;;;20.24;57.36
76260;BME280;65076;52.362;6.588;2023-09-19T14:37:09;100747.44;;;20.34;56.78
76260;BME280;65076;52.362;6.588;2023-09-19T14:39:40;100746.06;;;20.58;56.25
76260;BME280;65076;52.362;6.588;2023-09-19T14:42:13;100745.03;;;20.50;55.76
76260;BME280;65076;52.362;6.588;2023-09-19T14:44:43;100717.13;;;20.54;55.17
76260;BME280;65076;52.362;6.588;2023-09-19T14:47:12;100723.09;;;20.79;56.49
76260;BME280;65076;52.362;6.588;2023-09-19T14:49:42;100729.53;;;20.98;55.19
76260;BME280;65076;52.362;6.588;2023-09-19T14:52:11;100731.25;;;20.99;55.28
76260;BME280;65076;52.362;6.588;2023-09-19T14:54:41;100713.59;;;21.02;55.25
76260;BME280;65076;52.362;6.588;2023-09-19T14:57:12;100718.81;;;21.14;55.07
76260;BME280;65076;52.362;6.588;2023-09-19T14:59:42;100719.22;;;21.10;54.89
76260;BME280;65076;52.362;6.588;2023-09-19T15:02:10;100719.41;;;21.28;54.92
76260;BME280;65076;52.362;6.588;2023-09-19T15:04:42;100710.28;;;21.18;54.93
76260;BME280;65076;52.362;6.588;2023-09-19T15:07:13;100710.53;;;20.86;55.75
76260;BME280;65076;52.362;6.588;2023-09-19T15:09:43;100712.09;;;20.69;56.54
76260;BME280;65076;52.362;6.588;2023-09-19T15:12:15;100703.84;;;20.69;56.05
76260;BME280;65076;52.362;6.588;2023-09-19T15:14:56;100707.19;;;20.73;56.07
76260;BME280;65076;52.362;6.588;2023-09-19T15:17:26;100705.16;;;20.75;56.58